sensor_id;sensor_type;location;lat;lon;timestamp;pressure;altitude;pressure_sealevel;temperature;humidity
85140;BME280;75501;52.586;13.284;2024-03-08T00:00:18;102000.00;;;2.09;66.47
85140;BME280;75501;52.586;13.284;2024-03-08T00:02:47;101994.44;;;2.11;66.66
85140;BME280;75501;52.586;13.284;2024-03-08T00:05:19;101992.81;;;2.03;66.73
85140;BME280;75501;52.586;13.284;2024-03-08T00:07:48;101997.59;;;2.01;66.23
85140;BME280;75501;52.586;13.284;2024-03-08T00:10:16;101996.38;;;1.97;66.57
85140;BME280;75501;52.586;13.284;2024-03-08T00:12:45;101994.94;;;1.94;66.96
85140;BME280;75501;52.586;13.284;2024-03-08T00:15:15;101986.25;;;1.92;66.93
85140;BME280;75501;52.586;13.284;2024-03-08T00:17:46;101994.16;;;1.87;67.30
85140;BME280;75501;52.586;13.284;2024-03-08T00:20:15;101983.59;;;1.86;67.19
85140;BME280;75501;52.586;13.284;2024-03-08T00:22:47;101989.84;;;1.73;67.83
85140;BME280;75501;52.586;13.284;2024-03-08T00:25:15;101989.84;;;1.67;67.51
85140;BME280;75501;52.586;13.284;2024-03-08T00:27:43;101988.03;;;1.54;68.27
85140;BME280;75501;52.586;13.284;2024-03-08T00:30:12;101987.00;;;1.62;68.14
85140;BME280;75501;52.586;13.284;2024-03-08T00:32:41;101991.31;;;1.56;68.68
85140;BME280;75501;52.586;13.284;2024-03-08T00:35:09;101992.97;;;1.57;68.53
85140;BME280;75501;52.586;13.284;2024-03-08T00:37:38;101987.63;;;1.50;68.39
85140;BME280;75501;52.586;13.284;2024-03-08T00:40:10;101987.22;;;1.54;68.46
85140;BME280;75501;52.586;13.284;2024-03-08T00:42:39;101980.22;;;1.39;68.44
85140;BME280;75501;52.586;13.284;2024-03-08T00:45:08;101979.63;;;1.44;68.51
85140;BME280;75501;52.586;13.284;2024-03-08T00:47:38;101980.63;;;1.43;69.03
85140;BME280;75501;52.586;13.284;2024-03-08T00:50:07;101972.81;;;1.41;69.38
85140;BME280;75501;52.586;13.284;2024-03-08T00:52:36;101967.84;;;1.38;69.43
85140;BME280;75501;52.586;13.284;2024-03-08T00:55:05;101972.63;;;1.36;68.97
85140;BME280;75501;52.586;13.284;2024-03-08T00:57:36;101970.56;;;1.32;69.26
85140;BME280;75501;52.586;13.284;2024-03-08T01:00:06;101969.13;;;1.29;69.19
85140;BME280;75501;52.586;13.284;2024-03-08T01:02:38;101974.06;;;1.32;69.56
85140;BME280;75501;52.586;13.284;2024-03-08T01:05:07;101963.34;;;1.32;69.69
85140;BME280;75501;52.586;13.284;2024-03-08T01:07:36;101967.88;;;1.32;69.67
85140;BME280;75501;52.586;13.284;2024-03-08T01:10:05;101968.94;;;1.31;69.37
85140;BME280;75501;52.586;13.284;2024-03-08T01:12:38;101966.44;;;1.29;69.54
85140;BME280;75501;52.586;13.284;2024-03-08T01:15:07;101953.03;;;1.29;69.77
85140;BME280;75501;52.586;13.284;2024-03-08T01:17:37;101947.91;;;1.21;69.77
85140;BME280;75501;52.586;13.284;2024-03-08T01:20:06;101948.13;;;1.20;69.80
85140;BME280;75501;52.586;13.284;2024-03-08T01:22:37;101943.97;;;1.17;70.15
85140;BME280;75501;52.586;13.284;2024-03-08T01:25:06;101953.06;;;1.16;70.33
85140;BME280;75501;52.586;13.284;2024-03-08T01:27:35;101953.09;;;1.10;69.95
85140;BME280;75501;52.586;13.284;2024-03-08T01:30:06;101940.72;;;1.02;70.83
85140;BME280;75501;52.586;13.284;2024-03-08T01:32:36;101934.56;;;0.95;70.93
85140;BME280;75501;52.586;13.284;2024-03-08T01:35:05;101939.50;;;0.98;71.03
85140;BME280;75501;52.586;13.284;2024-03-08T01:37:36;101932.06;;;0.87;71.01
85140;BME280;75501;52.586;13.284;2024-03-08T01:40:05;101927.53;;;0.87;70.96
85140;BME280;75501;52.586;13.284;2024-03-08T01:42:35;101924.88;;;0.81;71.62
85140;BME280;75501;52.586;13.284;2024-03-08T01:45:07;101925.28;;;0.84;71.38
85140;BME280;75501;52.586;13.284;2024-03-08T01:47:35;101922.41;;;0.73;71.59
85140;BME280;75501;52.586;13.284;2024-03-08T01:50:06;101913.13;;;0.69;71.84
85140;BME280;75501;52.586;13.284;2024-03-08T01:52:35;101911.47;;;0.68;71.79
85140;BME280;75501;52.586;13.284;2024-03-08T01:55:05;101907.97;;;0.61;72.45
85140;BME280;75501;52.586;13.284;2024-03-08T01:57:34;101911.88;;;0.65;72.41
85140;BME280;75501;52.586;13.284;2024-03-08T02:00:07;101903.25;;;0.63;72.21
85140;BME280;75501;52.586;13.284;2024-03-08T02:02:42;101902.63;;;0.61;72.09
85140;BME280;75501;52.586;13.284;2024-03-08T02:05:11;101900.16;;;0.59;71.84
85140;BME280;75501;52.586;13.284;2024-03-08T02:07:40;101900.34;;;0.58;72.77
85140;BME280;75501;52.586;13.284;2024-03-08T02:10:10;101898.91;;;0.55;72.52
85140;BME280;75501;52.586;13.284;2024-03-08T02:12:39;101898.09;;;0.55;71.77
85140;BME280;75501;52.586;13.284;2024-03-08T02:15:09;101898.72;;;0.57;71.95
85140;BME280;75501;52.586;13.284;2024-03-08T02:17:37;101892.97;;;0.53;72.32
85140;BME280;75501;52.586;13.284;2024-03-08T02:20:06;101888.41;;;0.47;72.63
85140;BME280;75501;52.586;13.284;2024-03-08T02:22:37;101891.50;;;0.50;72.76
85140;BME280;75501;52.586;13.284;2024-03-08T02:25:07;101889.47;;;0.46;72.29
85140;BME280;75501;52.586;13.284;2024-03-08T02:27:36;101890.47;;;0.45;72.42
85140;BME280;75501;52.586;13.284;2024-03-08T02:30:05;101882.22;;;0.46;72.79
85140;BME280;75501;52.586;13.284;2024-03-08T02:32:34;101883.88;;;0.41;73.05
85140;BME280;75501;52.586;13.284;2024-03-08T02:35:02;101883.28;;;0.39;72.88
85140;BME280;75501;52.586;13.284;2024-03-08T02:37:32;101877.28;;;0.43;72.36
85140;BME280;75501;52.586;13.284;2024-03-08T02:40:02;101879.34;;;0.41;73.34
85140;BME280;75501;52.586;13.284;2024-03-08T02:42:32;101877.50;;;0.35;73.39
85140;BME280;75501;52.586;13.284;2024-03-08T02:45:00;101872.97;;;0.36;73.08
85140;BME280;75501;52.586;13.284;2024-03-08T02:47:28;101872.75;;;0.37;73.12
85140;BME280;75501;52.586;13.284;2024-03-08T02:49:57;101874.00;;;0.41;72.90
85140;BME280;75501;52.586;13.284;2024-03-08T02:52:26;101872.16;;;0.42;73.03
85140;BME280;75501;52.586;13.284;2024-03-08T02:54:54;101868.66;;;0.35;73.29
85140;BME280;75501;52.586;13.284;2024-03-08T02:57:24;101865.97;;;0.35;72.85
85140;BME280;75501;52.586;13.284;2024-03-08T02:59:53;101865.75;;;0.43;73.22
85140;BME280;75501;52.586;13.284;2024-03-08T03:02:22;101867.00;;;0.34;73.82
85140;BME280;75501;52.586;13.284;2024-03-08T03:04:50;101860.00;;;0.26;73.54
85140;BME280;75501;52.586;13.284;2024-03-08T03:07:19;101859.16;;;0.32;73.38
85140;BME280;75501;52.586;13.284;2024-03-08T03:09:47;101862.91;;;0.31;72.91
85140;BME280;75501;52.586;13.284;2024-03-08T03:12:15;101861.25;;;0.30;73.34
85140;BME280;75501;52.586;13.284;2024-03-08T03:14:45;101855.06;;;0.17;73.42
85140;BME280;75501;52.586;13.284;2024-03-08T03:17:14;101855.66;;;0.25;73.67
85140;BME280;75501;52.586;13.284;2024-03-08T03:19:42;101857.53;;;0.25;73.84
85140;BME280;75501;52.586;13.284;2024-03-08T03:22:11;101865.53;;;0.18;74.15
85140;BME280;75501;52.586;13.284;2024-03-08T03:24:39;101859.38;;;0.24;73.59
85140;BME280;75501;52.586;13.284;2024-03-08T03:27:08;101865.16;;;0.28;74.37
85140;BME280;75501;52.586;13.284;2024-03-08T03:29:38;101860.41;;;0.30;73.41
85140;BME280;75501;52.586;13.284;2024-03-08T03:32:10;101865.34;;;0.26;74.35
85140;BME280;75501;52.586;13.284;2024-03-08T03:34:38;101861.84;;;0.26;74.05
85140;BME280;75501;52.586;13.284;2024-03-08T03:37:07;101852.59;;;0.28;74.02
85140;BME280;75501;52.586;13.284;2024-03-08T03:39:39;101850.13;;;0.20;74.06
85140;BME280;75501;52.586;13.284;2024-03-08T03:42:15;101848.47;;;0.13;73.99
85140;BME280;75501;52.586;13.284;2024-03-08T03:44:44;101844.34;;;0.17;73.41
85140;BME280;75501;52.586;13.284;2024-03-08T03:47:15;101844.97;;;0.06;73.88
85140;BME280;75501;52.586;13.284;2024-03-08T03:49:44;101840.84;;;0.10;74.50
85140;BME280;75501;52.586;13.284;2024-03-08T03:52:12;101848.03;;;0.03;74.06
85140;BME280;75501;52.586;13.284;2024-03-08T03:54:41;101851.31;;;-0.02;74.86
85140;BME280;75501;52.586;13.284;2024-03-08T03:57:09;101851.09;;;-0.07;74.50
85140;BME280;75501;52.586;13.284;2024-03-08T03:59:38;101853.38;;;-0.04;74.71
85140;BME280;75501;52.586;13.284;2024-03-08T04:02:08;101848.81;;;-0.10;75.32
85140;BME280;75501;52.586;13.284;2024-03-08T04:04:38;101854.19;;;-0.10;75.22
85140;BME280;75501;52.586;13.284;2024-03-08T04:07:06;101849.88;;;-0.11;75.49
85140;BME280;75501;52.586;13.284;2024-03-08T04:09:36;101850.06;;;-0.13;75.04
85140;BME280;75501;52.586;13.284;2024-03-08T04:12:04;101854.81;;;-0.08;75.50
85140;BME280;75501;52.586;13.284;2024-03-08T04:14:33;101851.50;;;-0.10;74.85
85140;BME280;75501;52.586;13.284;2024-03-08T04:17:02;101855.59;;;-0.14;75.25
85140;BME280;75501;52.586;13.284;2024-03-08T04:19:30;101846.38;;;-0.18;74.68
85140;BME280;75501;52.586;13.284;2024-03-08T04:21:59;101850.47;;;-0.16;75.28
85140;BME280;75501;52.586;13.284;2024-03-08T04:24:27;101832.78;;;-0.17;74.98
85140;BME280;75501;52.586;13.284;2024-03-08T04:26:57;101845.13;;;-0.16;75.48
85140;BME280;75501;52.586;13.284;2024-03-08T04:29:25;101844.72;;;-0.19;75.17
85140;BME280;75501;52.586;13.284;2024-03-08T04:31:53;101843.06;;;-0.14;75.42
85140;BME280;75501;52.586;13.284;2024-03-08T04:34:22;101851.31;;;-0.15;75.87
85140;BME280;75501;52.586;13.284;2024-03-08T04:36:50;101845.31;;;-0.24;75.74
85140;BME280;75501;52.586;13.284;2024-03-08T04:39:20;101856.41;;;-0.20;75.15
85140;BME280;75501;52.586;13.284;2024-03-08T04:41:49;101848.81;;;-0.23;75.51
85140;BME280;75501;52.586;13.284;2024-03-08T04:44:18;101847.97;;;-0.24;76.03
85140;BME280;75501;52.586;13.284;2024-03-08T04:46:46;101845.91;;;-0.28;76.33
85140;BME280;75501;52.586;13.284;2024-03-08T04:49:14;101834.41;;;-0.22;75.35
85140;BME280;75501;52.586;13.284;2024-03-08T04:51:43;101841.59;;;-0.29;75.41
85140;BME280;75501;52.586;13.284;2024-03-08T04:54:12;101837.28;;;-0.24;76.05
85140;BME280;75501;52.586;13.284;2024-03-08T04:56:42;101834.41;;;-0.22;75.49
85140;BME280;75501;52.586;13.284;2024-03-08T04:59:10;101842.00;;;-0.32;76.50
85140;BME280;75501;52.586;13.284;2024-03-08T05:01:38;101841.19;;;-0.26;75.82
85140;BME280;75501;52.586;13.284;2024-03-08T05:04:06;101827.84;;;-0.20;75.81
85140;BME280;75501;52.586;13.284;2024-03-08T05:06:36;101838.34;;;-0.18;75.69
85140;BME280;75501;52.586;13.284;2024-03-08T05:09:04;101836.88;;;-0.21;74.84
85140;BME280;75501;52.586;13.284;2024-03-08T05:11:42;101839.13;;;-0.24;75.82
85140;BME280;75501;52.586;13.284;2024-03-08T05:14:12;101835.44;;;-0.17;74.83
85140;BME280;75501;52.586;13.284;2024-03-08T05:16:43;101830.09;;;-0.17;74.76
85140;BME280;75501;52.586;13.284;2024-03-08T05:19:16;101832.59;;;-0.15;75.28
85140;BME280;75501;52.586;13.284;2024-03-08T05:21:44;101835.25;;;-0.15;75.02
85140;BME280;75501;52.586;13.284;2024-03-08T05:24:14;101835.66;;;-0.18;74.76
85140;BME280;75501;52.586;13.284;2024-03-08T05:26:46;101835.84;;;-0.20;75.09
85140;BME280;75501;52.586;13.284;2024-03-08T05:29:14;101829.91;;;-0.22;75.82
85140;BME280;75501;52.586;13.284;2024-03-08T05:31:46;101828.66;;;-0.26;75.60
85140;BME280;75501;52.586;13.284;2024-03-08T05:34:16;101837.28;;;-0.30;76.03
85140;BME280;75501;52.586;13.284;2024-03-08T05:36:48;101836.25;;;-0.29;75.76
85140;BME280;75501;52.586;13.284;2024-03-08T05:39:18;101830.91;;;-0.29;75.83
85140;BME280;75501;52.586;13.284;2024-03-08T05:41:49;101823.72;;;-0.22;76.19
85140;BME280;75501;52.586;13.284;2024-03-08T05:44:18;101824.97;;;-0.18;75.60
85140;BME280;75501;52.586;13.284;2024-03-08T05:46:46;101812.81;;;-0.21;75.52
85140;BME280;75501;52.586;13.284;2024-03-08T05:49:14;101815.72;;;-0.22;75.92
85140;BME280;75501;52.586;13.284;2024-03-08T05:51:43;101823.50;;;-0.27;76.26
85140;BME280;75501;52.586;13.284;2024-03-08T05:54:12;101817.75;;;-0.18;75.92
85140;BME280;75501;52.586;13.284;2024-03-08T05:56:45;101819.22;;;-0.15;75.60
85140;BME280;75501;52.586;13.284;2024-03-08T05:59:15;101823.50;;;-0.14;75.42
85140;BME280;75501;52.586;13.284;2024-03-08T06:01:44;101820.84;;;-0.21;76.31
85140;BME280;75501;52.586;13.284;2024-03-08T06:04:13;101823.72;;;-0.16;76.58
85140;BME280;75501;52.586;13.284;2024-03-08T06:06:43;101829.91;;;-0.15;75.70
85140;BME280;75501;52.586;13.284;2024-03-08T06:09:12;101829.31;;;-0.04;75.61
85140;BME280;75501;52.586;13.284;2024-03-08T06:11:44;101819.22;;;-0.02;75.57
85140;BME280;75501;52.586;13.284;2024-03-08T06:14:13;101831.16;;;0.02;74.96
85140;BME280;75501;52.586;13.284;2024-03-08T06:16:47;101834.91;;;0.14;75.50
85140;BME280;75501;52.586;13.284;2024-03-08T06:19:16;101829.13;;;0.11;75.14
85140;BME280;75501;52.586;13.284;2024-03-08T06:21:45;101833.88;;;0.28;74.71
85140;BME280;75501;52.586;13.284;2024-03-08T06:24:13;101828.72;;;0.20;74.55
85140;BME280;75501;52.586;13.284;2024-03-08T06:26:42;101835.50;;;0.42;74.69
85140;BME280;75501;52.586;13.284;2024-03-08T06:29:10;101832.63;;;0.44;74.33
85140;BME280;75501;52.586;13.284;2024-03-08T06:31:39;101834.88;;;0.47;74.24
85140;BME280;75501;52.586;13.284;2024-03-08T06:34:08;101837.34;;;0.48;74.44
85140;BME280;75501;52.586;13.284;2024-03-08T06:36:38;101837.13;;;0.63;74.15
85140;BME280;75501;52.586;13.284;2024-03-08T06:39:06;101833.66;;;0.56;74.06
85140;BME280;75501;52.586;13.284;2024-03-08T06:41:37;101837.13;;;0.70;73.27
85140;BME280;75501;52.586;13.284;2024-03-08T06:44:05;101841.88;;;0.74;73.23
85140;BME280;75501;52.586;13.284;2024-03-08T06:46:35;101833.56;;;0.89;72.64
85140;BME280;75501;52.586;13.284;2024-03-08T06:49:04;101835.22;;;0.90;72.66
85140;BME280;75501;52.586;13.284;2024-03-08T06:51:35;101838.53;;;0.92;72.51
85140;BME280;75501;52.586;13.284;2024-03-08T06:54:03;101831.13;;;0.87;72.96
85140;BME280;75501;52.586;13.284;2024-03-08T06:56:35;101833.97;;;0.99;72.88
85140;BME280;75501;52.586;13.284;2024-03-08T06:59:03;101830.44;;;1.12;71.98
85140;BME280;75501;52.586;13.284;2024-03-08T07:01:33;101837.38;;;1.26;72.30
85140;BME280;75501;52.586;13.284;2024-03-08T07:04:03;101841.31;;;1.23;71.28
85140;BME280;75501;52.586;13.284;2024-03-08T07:06:34;101834.69;;;1.32;71.67
85140;BME280;75501;52.586;13.284;2024-03-08T07:09:03;101832.13;;;1.50;70.99
85140;BME280;75501;52.586;13.284;2024-03-08T07:11:31;101822.19;;;1.58;70.27
85140;BME280;75501;52.586;13.284;2024-03-08T07:14:01;101837.09;;;1.47;71.04
85140;BME280;75501;52.586;13.284;2024-03-08T07:16:32;101827.22;;;1.41;71.02
85140;BME280;75501;52.586;13.284;2024-03-08T07:19:01;101834.56;;;1.59;70.88
85140;BME280;75501;52.586;13.284;2024-03-08T07:21:30;101837.03;;;1.60;70.42
85140;BME280;75501;52.586;13.284;2024-03-08T07:24:00;101830.59;;;1.68;70.12
85140;BME280;75501;52.586;13.284;2024-03-08T07:26:45;101827.41;;;1.84;69.52
85140;BME280;75501;52.586;13.284;2024-03-08T07:29:16;101823.03;;;1.89;68.83
85140;BME280;75501;52.586;13.284;2024-03-08T07:31:44;101833.13;;;1.94;69.55
85140;BME280;75501;52.586;13.284;2024-03-08T07:34:23;101816.16;;;2.00;68.97
85140;BME280;75501;52.586;13.284;2024-03-08T07:36:51;101819.47;;;1.95;68.76
85140;BME280;75501;52.586;13.284;2024-03-08T07:39:20;101822.88;;;2.09;68.93
85140;BME280;75501;52.586;13.284;2024-03-08T07:41:51;101815.41;;;2.18;67.96
85140;BME280;75501;52.586;13.284;2024-03-08T07:44:20;101820.81;;;2.36;67.72
85140;BME280;75501;52.586;13.284;2024-03-08T07:46:48;101823.28;;;2.37;67.78
85140;BME280;75501;52.586;13.284;2024-03-08T07:49:17;101802.56;;;2.44;67.10
85140;BME280;75501;52.586;13.284;2024-03-08T07:51:46;101801.31;;;2.47;66.99
85140;BME280;75501;52.586;13.284;2024-03-08T07:54:15;101802.06;;;2.54;66.67
85140;BME280;75501;52.586;13.284;2024-03-08T07:56:45;101805.44;;;2.68;66.13
85140;BME280;75501;52.586;13.284;2024-03-08T07:59:13;101801.47;;;2.70;66.34
85140;BME280;75501;52.586;13.284;2024-03-08T08:01:41;101803.69;;;2.80;65.90
85140;BME280;75501;52.586;13.284;2024-03-08T08:04:10;101792.38;;;2.71;66.34
85140;BME280;75501;52.586;13.284;2024-03-08T08:06:41;101796.75;;;2.90;65.96
85140;BME280;75501;52.586;13.284;2024-03-08T08:09:09;101789.84;;;3.13;64.76
85140;BME280;75501;52.586;13.284;2024-03-08T08:11:41;101790.84;;;3.00;64.88
85140;BME280;75501;52.586;13.284;2024-03-08T08:14:11;101798.34;;;3.28;64.50
85140;BME280;75501;52.586;13.284;2024-03-08T08:16:39;101791.97;;;3.40;63.69
85140;BME280;75501;52.586;13.284;2024-03-08T08:19:09;101796.38;;;3.53;62.73
85140;BME280;75501;52.586;13.284;2024-03-08T08:21:40;101788.78;;;3.62;62.37
85140;BME280;75501;52.586;13.284;2024-03-08T08:24:08;101790.16;;;3.53;62.29
85140;BME280;75501;52.586;13.284;2024-03-08T08:26:37;101780.13;;;3.60;62.22
85140;BME280;75501;52.586;13.284;2024-03-08T08:29:06;101785.31;;;3.61;62.01
85140;BME280;75501;52.586;13.284;2024-03-08T08:31:36;101779.41;;;3.82;61.43
85140;BME280;75501;52.586;13.284;2024-03-08T08:34:04;101779.75;;;3.97;61.24
85140;BME280;75501;52.586;13.284;2024-03-08T08:36:33;101772.28;;;4.11;61.24
85140;BME280;75501;52.586;13.284;2024-03-08T08:39:01;101774.78;;;4.24;60.38
85140;BME280;75501;52.586;13.284;2024-03-08T08:41:30;101773.97;;;4.35;60.21
85140;BME280;75501;52.586;13.284;2024-03-08T08:43:58;101770.78;;;4.62;59.09
85140;BME280;75501;52.586;13.284;2024-03-08T08:46:42;101768.91;;;4.62;58.74
85140;BME280;75501;52.586;13.284;2024-03-08T08:49:11;101772.44;;;4.74;58.52
85140;BME280;75501;52.586;13.284;2024-03-08T08:51:41;101762.44;;;4.75;58.42
85140;BME280;75501;52.586;13.284;2024-03-08T08:54:09;101762.69;;;4.85;57.63
85140;BME280;75501;52.586;13.284;2024-03-08T08:56:40;101753.16;;;5.06;56.12
85140;BME280;75501;52.586;13.284;2024-03-08T08:59:10;101750.44;;;5.06;56.19
85140;BME280;75501;52.586;13.284;2024-03-08T09:01:40;101748.97;;;5.26;55.27
85140;BME280;75501;52.586;13.284;2024-03-08T09:04:10;101754.94;;;5.28;55.56
85140;BME280;75501;52.586;13.284;2024-03-08T09:06:39;101750.09;;;5.42;55.34
85140;BME280;75501;52.586;13.284;2024-03-08T09:09:08;101750.22;;;5.35;55.21
85140;BME280;75501;52.586;13.284;2024-03-08T09:11:37;101749.75;;;5.38;54.39
85140;BME280;75501;52.586;13.284;2024-03-08T09:14:08;101740.88;;;5.55;53.72
85140;BME280;75501;52.586;13.284;2024-03-08T09:16:38;101739.41;;;5.64;52.56
85140;BME280;75501;52.586;13.284;2024-03-08T09:19:07;101742.38;;;5.79;51.85
85140;BME280;75501;52.586;13.284;2024-03-08T09:21:38;101743.72;;;5.93;51.00
85140;BME280;75501;52.586;13.284;2024-03-08T09:24:07;101736.13;;;5.90;50.94
85140;BME280;75501;52.586;13.284;2024-03-08T09:26:35;101732.44;;;5.96;50.36
85140;BME280;75501;52.586;13.284;2024-03-08T09:29:03;101729.56;;;6.19;50.23
85140;BME280;75501;52.586;13.284;2024-03-08T09:31:33;101725.81;;;6.04;50.09
85140;BME280;75501;52.586;13.284;2024-03-08T09:34:01;101722.94;;;6.10;50.05
85140;BME280;75501;52.586;13.284;2024-03-08T09:36:29;101717.53;;;6.10;49.63
85140;BME280;75501;52.586;13.284;2024-03-08T09:39:01;101722.13;;;6.26;49.68
85140;BME280;75501;52.586;13.284;2024-03-08T09:41:29;101718.97;;;6.34;49.05
85140;BME280;75501;52.586;13.284;2024-03-08T09:43:58;101714.50;;;6.23;49.36
85140;BME280;75501;52.586;13.284;2024-03-08T09:46:27;101715.28;;;6.24;49.33
85140;BME280;75501;52.586;13.284;2024-03-08T09:48:55;101712.50;;;6.35;49.47
85140;BME280;75501;52.586;13.284;2024-03-08T09:51:28;101708.50;;;6.60;48.80
85140;BME280;75501;52.586;13.284;2024-03-08T09:53:57;101704.03;;;6.87;48.40
85140;BME280;75501;52.586;13.284;2024-03-08T09:56:32;101705.94;;;6.91;48.54
85140;BME280;75501;52.586;13.284;2024-03-08T09:59:00;101708.97;;;6.95;47.23
85140;BME280;75501;52.586;13.284;2024-03-08T10:01:59;101696.03;;;6.75;47.33
85140;BME280;75501;52.586;13.284;2024-03-08T10:04:29;101697.16;;;6.58;47.89
85140;BME280;75501;52.586;13.284;2024-03-08T10:06:58;101695.00;;;6.60;47.66
85140;BME280;75501;52.586;13.284;2024-03-08T10:09:27;101693.06;;;6.55;47.92
85140;BME280;75501;52.586;13.284;2024-03-08T10:11:57;101695.19;;;6.75;47.53
85140;BME280;75501;52.586;13.284;2024-03-08T10:14:26;101691.75;;;6.58;47.44
85140;BME280;75501;52.586;13.284;2024-03-08T10:16:54;101690.09;;;6.78;47.83
85140;BME280;75501;52.586;13.284;2024-03-08T10:19:26;101681.66;;;6.96;47.46
85140;BME280;75501;52.586;13.284;2024-03-08T10:21:57;101683.44;;;6.86;47.13
85140;BME280;75501;52.586;13.284;2024-03-08T10:24:26;101681.06;;;6.68;46.00
85140;BME280;75501;52.586;13.284;2024-03-08T10:26:58;101678.47;;;6.78;45.33
85140;BME280;75501;52.586;13.284;2024-03-08T10:29:27;101677.84;;;6.92;45.19
85140;BME280;75501;52.586;13.284;2024-03-08T10:31:55;101673.03;;;6.99;45.78
85140;BME280;75501;52.586;13.284;2024-03-08T10:34:24;101666.06;;;7.30;45.06
85140;BME280;75501;52.586;13.284;2024-03-08T10:36:52;101669.78;;;7.24;44.67
85140;BME280;75501;52.586;13.284;2024-03-08T10:39:22;101666.53;;;7.22;44.13
85140;BME280;75501;52.586;13.284;2024-03-08T10:41:58;101667.31;;;7.23;44.65
85140;BME280;75501;52.586;13.284;2024-03-08T10:44:40;101658.31;;;7.39;44.37
85140;BME280;75501;52.586;13.284;2024-03-08T10:47:21;101657.41;;;7.33;44.21
85140;BME280;75501;52.586;13.284;2024-03-08T10:50:04;101647.72;;;7.37;44.15
85140;BME280;75501;52.586;13.284;2024-03-08T10:52:40;101661.25;;;7.11;43.82
85140;BME280;75501;52.586;13.284;2024-03-08T10:55:09;101642.56;;;7.36;43.31
85140;BME280;75501;52.586;13.284;2024-03-08T10:57:40;101644.16;;;7.32;43.00
85140;BME280;75501;52.586;13.284;2024-03-08T11:00:12;101642.66;;;7.46;43.38
85140;BME280;75501;52.586;13.284;2024-03-08T11:02:43;101643.09;;;7.65;42.84
85140;BME280;75501;52.586;13.284;2024-03-08T11:05:15;101632.88;;;7.77;43.28
85140;BME280;75501;52.586;13.284;2024-03-08T11:08:02;101634.28;;;7.79;43.18
85140;BME280;75501;52.586;13.284;2024-03-08T11:10:31;101631.34;;;7.91;42.37
85140;BME280;75501;52.586;13.284;2024-03-08T11:13:01;101626.16;;;7.79;43.07
85140;BME280;75501;52.586;13.284;2024-03-08T11:15:29;101619.09;;;7.83;42.91
85140;BME280;75501;52.586;13.284;2024-03-08T11:17:59;101617.91;;;8.06;42.50
85140;BME280;75501;52.586;13.284;2024-03-08T11:20:28;101619.22;;;7.93;42.48
85140;BME280;75501;52.586;13.284;2024-03-08T11:23:00;101603.66;;;7.79;43.83
85140;BME280;75501;52.586;13.284;2024-03-08T11:25:37;101602.66;;;7.95;42.42
85140;BME280;75501;52.586;13.284;2024-03-08T11:28:16;101603.50;;;7.95;42.72
85140;BME280;75501;52.586;13.284;2024-03-08T11:30:47;101604.25;;;7.86;41.65
85140;BME280;75501;52.586;13.284;2024-03-08T11:33:53;101596.56;;;7.73;41.92
85140;BME280;75501;52.586;13.284;2024-03-08T11:36:24;101583.88;;;7.78;40.67
85140;BME280;75501;52.586;13.284;2024-03-08T11:38:52;101592.31;;;7.87;40.54
85140;BME280;75501;52.586;13.284;2024-03-08T11:41:23;101584.72;;;7.84;39.02
85140;BME280;75501;52.586;13.284;2024-03-08T11:44:02;101575.63;;;8.05;38.41
85140;BME280;75501;52.586;13.284;2024-03-08T11:46:33;101577.97;;;8.28;38.22
85140;BME280;75501;52.586;13.284;2024-03-08T11:49:02;101568.78;;;8.44;37.97
85140;BME280;75501;52.586;13.284;2024-03-08T11:51:32;101574.00;;;8.61;39.26
85140;BME280;75501;52.586;13.284;2024-03-08T11:54:01;101567.66;;;8.30;40.64
85140;BME280;75501;52.586;13.284;2024-03-08T11:56:30;101574.72;;;8.36;39.55
85140;BME280;75501;52.586;13.284;2024-03-08T11:58:58;101558.69;;;8.30;38.13
85140;BME280;75501;52.586;13.284;2024-03-08T12:01:30;101566.63;;;8.41;37.13
85140;BME280;75501;52.586;13.284;2024-03-08T12:03:59;101555.78;;;8.52;37.42
85140;BME280;75501;52.586;13.284;2024-03-08T12:06:36;101560.72;;;8.65;36.90
85140;BME280;75501;52.586;13.284;2024-03-08T12:09:10;101551.53;;;8.86;36.54
85140;BME280;75501;52.586;13.284;2024-03-08T12:11:39;101556.63;;;8.62;38.78
85140;BME280;75501;52.586;13.284;2024-03-08T12:14:09;101551.69;;;8.44;40.33
85140;BME280;75501;52.586;13.284;2024-03-08T12:16:39;101547.91;;;8.45;40.92
85140;BME280;75501;52.586;13.284;2024-03-08T12:19:07;101550.84;;;8.33;41.51
85140;BME280;75501;52.586;13.284;2024-03-08T12:21:36;101543.84;;;8.42;41.18
85140;BME280;75501;52.586;13.284;2024-03-08T12:24:05;101539.78;;;8.45;41.31
85140;BME280;75501;52.586;13.284;2024-03-08T12:26:36;101535.75;;;8.63;41.17
85140;BME280;75501;52.586;13.284;2024-03-08T12:29:17;101527.31;;;8.54;40.56
85140;BME280;75501;52.586;13.284;2024-03-08T12:31:52;101524.91;;;8.63;39.77
85140;BME280;75501;52.586;13.284;2024-03-08T12:34:25;101515.41;;;8.50;39.30
85140;BME280;75501;52.586;13.284;2024-03-08T12:36:54;101513.78;;;8.59;39.41
85140;BME280;75501;52.586;13.284;2024-03-08T12:39:23;101514.50;;;8.29;40.06
85140;BME280;75501;52.586;13.284;2024-03-08T12:41:54;101501.56;;;8.52;39.73
85140;BME280;75501;52.586;13.284;2024-03-08T12:44:24;101500.19;;;8.54;40.26
85140;BME280;75501;52.586;13.284;2024-03-08T12:46:54;101499.44;;;8.64;40.38
85140;BME280;75501;52.586;13.284;2024-03-08T12:49:23;101507.56;;;8.64;39.78
85140;BME280;75501;52.586;13.284;2024-03-08T12:51:52;101501.28;;;8.43;38.83
85140;BME280;75501;52.586;13.284;2024-03-08T12:54:20;101492.63;;;8.56;38.53
85140;BME280;75501;52.586;13.284;2024-03-08T12:56:51;101499.13;;;8.55;37.86
85140;BME280;75501;52.586;13.284;2024-03-08T12:59:21;101494.53;;;8.56;37.21
85140;BME280;75501;52.586;13.284;2024-03-08T13:01:50;101495.91;;;8.63;37.11